Skip to main content Skip to accessibility
This website is not compatible with your web browser. You should install a newer browser. If you live in Jersey and need help upgrading call the States of Jersey web team on 440099.
Homegov.je

L'înformâtion et les sèrvices publyis pouor I'Île dé Jèrri

Local METARs

METAR EGJJ 201920Z 17018G29KT 9999 FEW023 BKN030 15/13 Q1008

METAR EGJB 201920Z 17018KT 9999 SCT022 BKN038 15/12 Q1006

METAR EGJA 201820Z 20023G34KT 9999 FEW030 15/// Q1007

METAR LFRD 201900Z AUTO 17014KT 9999 BKN024 OVC033 15/11 Q1009 TEMPO 3000 RA BKN008 BECMG 19020G35KT

METAR LFRC 201900Z AUTO 18015KT 9999 OVC049 14/09 Q1008

 

 

 

​Times are in Greenwich Mean Time (GMT) and not British Summer Time (BST). They will be one hour different during BST.

Back to top
rating button